createdAt,value
2018-05-02T00:02:23.577Z,99.59
2018-05-02T00:07:20.173Z,99.99
2018-05-02T00:12:16.495Z,99.99
2018-05-02T00:17:12.136Z,99.99
2018-05-02T00:22:07.959Z,99.88
2018-05-02T00:27:03.779Z,99.99
2018-05-02T00:32:03.461Z,99.99
2018-05-02T00:36:58.242Z,99.99
2018-05-02T00:41:58.013Z,99.99
2018-05-02T00:46:52.927Z,99.99
2018-05-02T00:51:52.502Z,99.99
2018-05-02T00:56:47.367Z,99.99
2018-05-02T01:01:43.121Z,99.99
2018-05-02T01:06:39.153Z,99.99
2018-05-02T01:11:35.594Z,99.99
2018-05-02T01:16:31.496Z,99.99
2018-05-02T01:21:27.936Z,99.99
2018-05-02T01:26:27.346Z,99.99
2018-05-02T01:31:22.056Z,99.99
2018-05-02T01:36:21.721Z,99.99
2018-05-02T01:41:16.653Z,99.99
2018-05-02T01:46:12.459Z,99.99
2018-05-02T01:51:07.984Z,99.99
2018-05-02T01:56:03.635Z,99.99
2018-05-02T02:00:59.099Z,99.99
2018-05-02T02:05:55.931Z,99.99
2018-05-02T02:10:51.276Z,99.99
2018-05-02T02:15:46.903Z,99.99
2018-05-02T02:20:42.236Z,99.99
2018-05-02T02:25:38.767Z,99.99
2018-05-02T02:30:34.285Z,99.99
2018-05-02T02:35:29.829Z,99.99
2018-05-02T02:40:29.242Z,99.99
2018-05-02T02:45:29.422Z,99.99
2018-05-02T02:50:23.891Z,99.99
2018-05-02T02:55:19.607Z,99.99
2018-05-02T03:00:15.207Z,99.99
2018-05-02T03:05:11.901Z,99.99
2018-05-02T03:10:07.723Z,99.99
2018-05-02T03:15:03.500Z,99.99
2018-05-02T03:20:00.215Z,99.99
2018-05-02T03:24:55.574Z,99.99
2018-05-02T03:29:52.296Z,99.99
2018-05-02T03:34:48.659Z,99.99
2018-05-02T03:39:45.145Z,99.99
2018-05-02T03:44:40.619Z,99.99
2018-05-02T03:49:36.261Z,99.99
2018-05-02T03:54:31.998Z,99.99
2018-05-02T03:59:32.761Z,99.99
2018-05-02T04:04:31.386Z,99.99
2018-05-02T04:09:27.835Z,99.99
2018-05-02T04:14:23.259Z,99.99
2018-05-02T04:19:19.052Z,99.99
2018-05-02T04:24:14.800Z,99.99
2018-05-02T04:29:10.855Z,99.99
2018-05-02T04:34:10.392Z,99.99
2018-05-02T04:39:05.261Z,99.99
2018-05-02T04:44:01.237Z,99.99
2018-05-02T04:48:57.593Z,99.99
2018-05-02T04:53:54.385Z,99.99
2018-05-02T04:58:49.848Z,99.99
2018-05-02T05:03:50.665Z,99.99
2018-05-02T05:08:45.174Z,99.99
2018-05-02T05:13:40.484Z,99.99
2018-05-02T05:18:41.136Z,99.99
2018-05-02T05:23:35.882Z,99.99
2018-05-02T05:28:32.878Z,99.99
2018-05-02T05:33:28.319Z,99.99
2018-05-02T05:38:24.169Z,99.99
2018-05-02T05:43:20.005Z,99.99
2018-05-02T05:48:15.989Z,99.99
2018-05-02T05:53:11.898Z,99.99
2018-05-02T05:58:07.719Z,99.99
2018-05-02T06:03:03.690Z,99.99
2018-05-02T06:07:59.735Z,99.99
2018-05-02T06:12:55.637Z,99.99
2018-05-02T06:17:52.530Z,99.99
2018-05-02T06:22:48.175Z,99.99
2018-05-02T06:27:48.196Z,99.99
2018-05-02T06:32:44.327Z,99.99
2018-05-02T06:37:44.768Z,99.99
2018-05-02T06:42:40.146Z,99.27
2018-05-02T06:47:35.943Z,98.32
2018-05-02T06:52:31.814Z,96.41
2018-05-02T06:57:27.757Z,96.46
2018-05-02T07:02:27.791Z,95.60
2018-05-02T07:07:22.950Z,92.74
2018-05-02T07:12:22.889Z,92.65
2018-05-02T07:17:17.914Z,92.13
2018-05-02T07:22:19.010Z,91.84
2018-05-02T07:27:19.499Z,90.98
2018-05-02T07:32:14.294Z,90.17
2018-05-02T07:37:10.595Z,87.98
2018-05-02T07:42:10.963Z,84.16
2018-05-02T07:47:09.205Z,76.54
2018-05-02T07:52:07.659Z,67.94
2018-05-02T07:57:05.438Z,63.16
2018-05-02T08:02:03.073Z,59.16
2018-05-02T08:07:00.847Z,56.05
2018-05-02T08:12:01.440Z,55.19
2018-05-02T08:16:57.025Z,55.86
2018-05-02T08:21:53.297Z,55.57
2018-05-02T08:26:49.722Z,56.00
2018-05-02T08:31:46.082Z,55.26
2018-05-02T08:36:42.315Z,56.76
2018-05-02T08:41:42.459Z,57.89
2018-05-02T08:46:35.628Z,61.28
2018-05-02T08:51:34.360Z,63.64
2018-05-02T08:56:32.049Z,63.83
2018-05-02T09:01:28.225Z,62.87
2018-05-02T09:06:23.427Z,65.52
2018-05-02T09:11:20.108Z,65.42
2018-05-02T09:16:15.704Z,65.94
2018-05-02T09:21:11.312Z,63.16
2018-05-02T09:26:08.148Z,60.61
2018-05-02T09:31:06.304Z,57.79
2018-05-02T09:36:04.199Z,56.48
2018-05-02T09:41:01.160Z,56.26
2018-05-02T09:45:57.264Z,56.19
2018-05-02T09:50:58.278Z,52.50
2018-05-02T09:55:55.329Z,51.83
2018-05-02T10:00:52.184Z,52.19
2018-05-02T10:05:47.993Z,53.34
2018-05-02T10:10:48.687Z,51.54
2018-05-02T10:15:48.800Z,50.78
2018-05-02T10:20:44.386Z,51.57
2018-05-02T10:25:42.112Z,50.49
2018-05-02T10:30:41.667Z,50.42
2018-05-02T10:35:38.168Z,50.44
2018-05-02T10:40:34.887Z,50.61
2018-05-02T10:45:35.397Z,50.05
2018-05-02T10:50:31.352Z,48.18
2018-05-02T10:55:28.128Z,46.57
2018-05-02T11:00:25.165Z,43.51
2018-05-02T11:05:26.164Z,42.84
2018-05-02T11:10:22.175Z,42.38
2018-05-02T11:15:19.836Z,42.28
2018-05-02T11:20:16.978Z,41.49
2018-05-02T11:25:13.858Z,41.99
2018-05-02T11:30:10.153Z,40.76
2018-05-02T11:35:10.369Z,39.78
2018-05-02T11:40:09.793Z,40.53
2018-05-02T11:45:05.109Z,39.89
2018-05-02T11:50:02.330Z,39.70
2018-05-02T11:55:01.958Z,40.34
2018-05-02T11:59:57.049Z,38.66
2018-05-02T12:04:52.987Z,39.70
2018-05-02T12:09:49.173Z,40.94
2018-05-02T12:14:49.385Z,40.84
2018-05-02T12:19:43.718Z,41.97
2018-05-02T12:24:44.360Z,41.30
2018-05-02T12:29:38.257Z,43.20
2018-05-02T12:34:37.953Z,43.49
2018-05-02T12:39:36.480Z,43.49
2018-05-02T12:44:33.644Z,43.37
2018-05-02T12:49:27.780Z,45.08
2018-05-02T12:54:28.447Z,43.68
2018-05-02T12:59:28.251Z,43.40
2018-05-02T13:04:27.479Z,42.72
2018-05-02T13:09:24.420Z,44.05
2018-05-02T13:14:25.286Z,42.36
2018-05-02T13:19:20.347Z,42.84
2018-05-02T13:24:16.112Z,43.01
2018-05-02T13:29:12.461Z,44.62
2018-05-02T13:34:07.831Z,46.72
2018-05-02T13:39:03.039Z,46.50
2018-05-02T13:43:59.380Z,46.77
2018-05-02T13:48:54.339Z,47.15
2018-05-02T13:53:49.744Z,47.15
2018-05-02T13:58:50.398Z,47.85
2018-05-02T14:03:50.100Z,46.67
2018-05-02T14:08:46.079Z,47.66
2018-05-02T14:13:45.964Z,46.50
2018-05-02T14:18:40.915Z,47.25
2018-05-02T14:23:41.477Z,48.52
2018-05-02T14:28:36.922Z,46.59
2018-05-02T14:33:33.481Z,47.53
2018-05-02T14:38:32.915Z,48.97
2018-05-02T14:43:28.127Z,48.97
2018-05-02T14:48:27.616Z,48.85
2018-05-02T14:53:22.480Z,50.23
2018-05-02T14:58:23.154Z,49.17
2018-05-02T15:03:21.905Z,49.36
2018-05-02T15:08:21.798Z,49.84
2018-05-02T15:13:20.527Z,49.17
2018-05-02T15:18:20.335Z,49.07
2018-05-02T15:23:15.382Z,49.15
2018-05-02T15:28:12.344Z,49.74
2018-05-02T15:33:07.937Z,49.55
2018-05-02T15:38:07.701Z,49.74
2018-05-02T15:43:02.720Z,48.79
2018-05-02T15:47:59.440Z,48.57
2018-05-02T15:52:59.814Z,49.33
2018-05-02T15:57:58.447Z,49.26
2018-05-02T16:02:53.434Z,47.99
2018-05-02T16:07:53.088Z,49.05
2018-05-02T16:12:48.397Z,48.47
2018-05-02T16:17:48.276Z,48.57
2018-05-02T16:22:43.225Z,48.76
2018-05-02T16:27:39.999Z,49.15
2018-05-02T16:32:39.456Z,48.57
2018-05-02T16:37:34.416Z,49.24
2018-05-02T16:42:30.220Z,48.57
2018-05-02T16:47:27.213Z,48.57
2018-05-02T16:52:23.488Z,49.05
2018-05-02T16:57:22.621Z,48.83
2018-05-02T17:02:17.221Z,49.21
2018-05-02T17:07:15.183Z,49.15
2018-05-02T17:12:10.525Z,49.60
2018-05-02T17:17:11.271Z,50.10
2018-05-02T17:22:06.268Z,49.82
2018-05-02T17:27:02.311Z,49.50
2018-05-02T17:32:03.255Z,49.88
2018-05-02T17:37:01.727Z,49.31
2018-05-02T17:42:00.621Z,50.08
2018-05-02T17:46:55.292Z,50.56
2018-05-02T17:51:50.929Z,51.49
2018-05-02T17:56:46.702Z,52.07
2018-05-02T18:01:43.904Z,51.78
2018-05-02T18:06:39.048Z,53.03
2018-05-02T18:11:39.934Z,53.03
2018-05-02T18:16:38.741Z,54.05
2018-05-02T18:21:33.797Z,54.44
2018-05-02T18:26:30.528Z,55.30
2018-05-02T18:31:29.983Z,55.01
2018-05-02T18:36:28.793Z,55.65
2018-05-02T18:41:25.214Z,56.04
2018-05-02T18:46:20.550Z,57.57
2018-05-02T18:51:15.944Z,57.19
2018-05-02T18:56:12.138Z,57.38
2018-05-02T19:01:07.656Z,58.05
2018-05-02T19:06:07.210Z,59.27
2018-05-02T19:11:02.086Z,59.65
2018-05-02T19:15:57.846Z,59.75
2018-05-02T19:20:58.458Z,59.94
2018-05-02T19:25:58.745Z,60.13
2018-05-02T19:30:53.444Z,60.51
2018-05-02T19:35:53.090Z,61.28
2018-05-02T19:40:47.604Z,61.44
2018-05-02T19:45:47.331Z,62.49
2018-05-02T19:50:47.121Z,62.87
2018-05-02T19:55:41.936Z,63.54
2018-05-02T20:00:37.604Z,63.83
2018-05-02T20:05:37.349Z,64.85
2018-05-02T20:10:37.272Z,65.33
2018-05-02T20:15:31.857Z,65.71
2018-05-02T20:20:27.698Z,66.28
2018-05-02T20:25:27.372Z,66.96
2018-05-02T20:30:22.251Z,68.10
2018-05-02T20:35:22.961Z,67.78
2018-05-02T20:40:17.757Z,67.69
2018-05-02T20:45:13.595Z,69.41
2018-05-02T20:50:14.220Z,70.07
2018-05-02T20:55:12.925Z,70.46
2018-05-02T21:00:13.024Z,71.99
2018-05-02T21:05:12.014Z,72.66
2018-05-02T21:10:07.973Z,73.71
2018-05-02T21:15:07.685Z,72.37
2018-05-02T21:20:03.700Z,73.48
2018-05-02T21:25:01.313Z,73.99
2018-05-02T21:30:01.966Z,73.19
2018-05-02T21:34:57.663Z,73.58
2018-05-02T21:39:53.113Z,73.67
2018-05-02T21:44:49.927Z,75.39
2018-05-02T21:49:49.264Z,74.82
2018-05-02T21:54:44.188Z,74.73
2018-05-02T22:04:42.483Z,75.87
2018-05-02T22:09:42.117Z,76.25
2018-05-02T22:14:38.259Z,75.87
2018-05-02T22:19:33.827Z,75.78
2018-05-02T22:24:30.606Z,75.96
2018-05-02T22:34:26.569Z,78.22
2018-05-02T22:39:22.232Z,79.65
2018-05-02T22:44:17.631Z,81.18
2018-05-02T22:49:17.875Z,82.52
2018-05-02T22:54:16.721Z,82.71
2018-05-02T22:59:11.264Z,83.14
2018-05-02T23:04:11.073Z,84.48
2018-05-02T23:09:05.988Z,84.58
2018-05-02T23:14:02.228Z,84.39
2018-05-02T23:19:03.629Z,85.25
2018-05-02T23:24:00.977Z,85.05
2018-05-02T23:28:56.133Z,87.15
2018-05-02T23:38:53.299Z,88.87
2018-05-02T23:43:50.617Z,88.35
2018-05-02T23:48:46.928Z,89.88
2018-05-02T23:53:42.693Z,88.83
2018-05-02T23:58:38.387Z,90.45
